sensor_id;sensor_type;location;lat;lon;timestamp;temperature;humidity
69359;HTU21D;56520;49.066;8.660;2023-10-31T00:01:03;11.82;93.68
69359;HTU21D;56520;49.066;8.660;2023-10-31T00:03:29;11.79;93.89
69359;HTU21D;56520;49.066;8.660;2023-10-31T00:05:54;11.72;94.23
69359;HTU21D;56520;49.066;8.660;2023-10-31T00:08:20;11.72;94.71
69359;HTU21D;56520;49.066;8.660;2023-10-31T00:10:45;11.70;95.31
69359;HTU21D;56520;49.066;8.660;2023-10-31T00:13:11;11.76;95.47
69359;HTU21D;56520;49.066;8.660;2023-10-31T00:15:37;11.71;95.42
69359;HTU21D;56520;49.066;8.660;2023-10-31T00:18:02;11.72;95.23
69359;HTU21D;56520;49.066;8.660;2023-10-31T00:20:28;11.74;93.40
69359;HTU21D;56520;49.066;8.660;2023-10-31T00:22:54;11.84;91.83
69359;HTU21D;56520;49.066;8.660;2023-10-31T00:25:19;11.85;90.99
69359;HTU21D;56520;49.066;8.660;2023-10-31T00:27:45;11.76;91.15
69359;HTU21D;56520;49.066;8.660;2023-10-31T00:30:11;11.71;91.04
69359;HTU21D;56520;49.066;8.660;2023-10-31T00:32:36;11.72;90.43
69359;HTU21D;56520;49.066;8.660;2023-10-31T00:35:02;11.61;91.27
69359;HTU21D;56520;49.066;8.660;2023-10-31T00:37:27;11.59;91.06
69359;HTU21D;56520;49.066;8.660;2023-10-31T00:39:53;11.63;90.21
69359;HTU21D;56520;49.066;8.660;2023-10-31T00:42:18;11.55;90.80
69359;HTU21D;56520;49.066;8.660;2023-10-31T00:44:43;11.45;91.11
69359;HTU21D;56520;49.066;8.660;2023-10-31T00:47:09;11.40;90.90
69359;HTU21D;56520;49.066;8.660;2023-10-31T00:49:35;11.38;91.16
69359;HTU21D;56520;49.066;8.660;2023-10-31T00:52:00;11.42;90.71
69359;HTU21D;56520;49.066;8.660;2023-10-31T00:54:26;11.32;91.43
69359;HTU21D;56520;49.066;8.660;2023-10-31T00:56:51;11.32;90.75
69359;HTU21D;56520;49.066;8.660;2023-10-31T00:59:16;11.32;90.83
69359;HTU21D;56520;49.066;8.660;2023-10-31T01:01:42;11.31;90.67
69359;HTU21D;56520;49.066;8.660;2023-10-31T01:04:08;11.26;90.67
69359;HTU21D;56520;49.066;8.660;2023-10-31T01:06:34;11.22;90.79
69359;HTU21D;56520;49.066;8.660;2023-10-31T01:09:04;11.14;91.24
69359;HTU21D;56520;49.066;8.660;2023-10-31T01:11:29;11.14;90.99
69359;HTU21D;56520;49.066;8.660;2023-10-31T01:13:55;11.16;90.82
69359;HTU21D;56520;49.066;8.660;2023-10-31T01:16:20;11.16;90.73
69359;HTU21D;56520;49.066;8.660;2023-10-31T01:18:47;11.16;90.63
69359;HTU21D;56520;49.066;8.660;2023-10-31T01:21:12;11.14;90.64
69359;HTU21D;56520;49.066;8.660;2023-10-31T01:23:37;11.10;90.69
69359;HTU21D;56520;49.066;8.660;2023-10-31T01:26:03;11.12;90.34
69359;HTU21D;56520;49.066;8.660;2023-10-31T01:28:28;11.12;90.53
69359;HTU21D;56520;49.066;8.660;2023-10-31T01:30:53;11.11;90.63
69359;HTU21D;56520;49.066;8.660;2023-10-31T01:33:19;11.11;90.45
69359;HTU21D;56520;49.066;8.660;2023-10-31T01:35:44;11.10;90.58
69359;HTU21D;56520;49.066;8.660;2023-10-31T01:38:10;11.11;90.57
69359;HTU21D;56520;49.066;8.660;2023-10-31T01:40:35;11.14;90.05
69359;HTU21D;56520;49.066;8.660;2023-10-31T01:43:01;11.13;89.97
69359;HTU21D;56520;49.066;8.660;2023-10-31T01:45:26;11.13;89.79
69359;HTU21D;56520;49.066;8.660;2023-10-31T01:47:52;11.12;89.89
69359;HTU21D;56520;49.066;8.660;2023-10-31T01:50:17;11.10;89.92
69359;HTU21D;56520;49.066;8.660;2023-10-31T01:52:43;11.11;89.37
69359;HTU21D;56520;49.066;8.660;2023-10-31T01:55:10;11.10;89.71
69359;HTU21D;56520;49.066;8.660;2023-10-31T01:57:35;11.05;90.12
69359;HTU21D;56520;49.066;8.660;2023-10-31T02:00:01;11.05;90.31
69359;HTU21D;56520;49.066;8.660;2023-10-31T02:02:27;11.03;90.28
69359;HTU21D;56520;49.066;8.660;2023-10-31T02:04:53;10.99;90.48
69359;HTU21D;56520;49.066;8.660;2023-10-31T02:07:18;10.97;90.34
69359;HTU21D;56520;49.066;8.660;2023-10-31T02:09:44;10.98;89.57
69359;HTU21D;56520;49.066;8.660;2023-10-31T02:12:09;11.00;89.32
69359;HTU21D;56520;49.066;8.660;2023-10-31T02:14:35;10.96;89.38
69359;HTU21D;56520;49.066;8.660;2023-10-31T02:17:00;10.99;89.19
69359;HTU21D;56520;49.066;8.660;2023-10-31T02:19:26;11.03;88.29
69359;HTU21D;56520;49.066;8.660;2023-10-31T02:21:51;10.99;88.49
69359;HTU21D;56520;49.066;8.660;2023-10-31T02:24:17;10.93;88.98
69359;HTU21D;56520;49.066;8.660;2023-10-31T02:26:42;10.87;89.24
69359;HTU21D;56520;49.066;8.660;2023-10-31T02:29:08;10.88;88.92
69359;HTU21D;56520;49.066;8.660;2023-10-31T02:31:33;10.82;89.55
69359;HTU21D;56520;49.066;8.660;2023-10-31T02:33:58;10.74;89.93
69359;HTU21D;56520;49.066;8.660;2023-10-31T02:36:24;10.69;90.21
69359;HTU21D;56520;49.066;8.660;2023-10-31T02:38:49;10.70;90.03
69359;HTU21D;56520;49.066;8.660;2023-10-31T02:41:15;10.68;90.26
69359;HTU21D;56520;49.066;8.660;2023-10-31T02:43:41;10.66;90.24
69359;HTU21D;56520;49.066;8.660;2023-10-31T02:46:06;10.66;90.44
69359;HTU21D;56520;49.066;8.660;2023-10-31T02:48:32;10.63;90.45
69359;HTU21D;56520;49.066;8.660;2023-10-31T02:51:04;10.67;90.14
69359;HTU21D;56520;49.066;8.660;2023-10-31T02:53:30;10.69;90.34
69359;HTU21D;56520;49.066;8.660;2023-10-31T02:55:55;10.68;90.35
69359;HTU21D;56520;49.066;8.660;2023-10-31T02:58:20;10.68;90.28
69359;HTU21D;56520;49.066;8.660;2023-10-31T03:00:46;10.71;90.08
69359;HTU21D;56520;49.066;8.660;2023-10-31T03:03:11;10.75;89.92
69359;HTU21D;56520;49.066;8.660;2023-10-31T03:05:37;10.81;89.62
69359;HTU21D;56520;49.066;8.660;2023-10-31T03:08:02;10.74;90.04
69359;HTU21D;56520;49.066;8.660;2023-10-31T03:10:28;10.72;90.23
69359;HTU21D;56520;49.066;8.660;2023-10-31T03:12:53;10.69;90.07
69359;HTU21D;56520;49.066;8.660;2023-10-31T03:15:18;10.66;90.38
69359;HTU21D;56520;49.066;8.660;2023-10-31T03:17:44;10.73;89.86
69359;HTU21D;56520;49.066;8.660;2023-10-31T03:20:10;10.73;89.25
69359;HTU21D;56520;49.066;8.660;2023-10-31T03:22:35;10.75;88.90
69359;HTU21D;56520;49.066;8.660;2023-10-31T03:25:01;10.75;88.74
69359;HTU21D;56520;49.066;8.660;2023-10-31T03:27:26;10.75;88.72
69359;HTU21D;56520;49.066;8.660;2023-10-31T03:29:52;10.80;88.11
69359;HTU21D;56520;49.066;8.660;2023-10-31T03:32:17;10.86;87.95
69359;HTU21D;56520;49.066;8.660;2023-10-31T03:34:42;10.92;87.73
69359;HTU21D;56520;49.066;8.660;2023-10-31T03:37:08;10.93;87.44
69359;HTU21D;56520;49.066;8.660;2023-10-31T03:39:33;10.92;87.41
69359;HTU21D;56520;49.066;8.660;2023-10-31T03:41:59;10.94;86.97
69359;HTU21D;56520;49.066;8.660;2023-10-31T03:44:25;10.97;87.06
69359;HTU21D;56520;49.066;8.660;2023-10-31T03:46:50;10.96;87.16
69359;HTU21D;56520;49.066;8.660;2023-10-31T03:49:16;11.00;86.88
69359;HTU21D;56520;49.066;8.660;2023-10-31T03:51:41;11.00;87.22
69359;HTU21D;56520;49.066;8.660;2023-10-31T03:54:07;11.10;86.03
69359;HTU21D;56520;49.066;8.660;2023-10-31T03:56:43;11.16;85.22
69359;HTU21D;56520;49.066;8.660;2023-10-31T03:59:09;11.11;86.34
69359;HTU21D;56520;49.066;8.660;2023-10-31T04:01:34;11.09;85.83
69359;HTU21D;56520;49.066;8.660;2023-10-31T04:03:59;11.19;85.01
69359;HTU21D;56520;49.066;8.660;2023-10-31T04:06:25;11.24;84.74
69359;HTU21D;56520;49.066;8.660;2023-10-31T04:08:50;11.23;84.97
69359;HTU21D;56520;49.066;8.660;2023-10-31T04:11:16;11.17;85.02
69359;HTU21D;56520;49.066;8.660;2023-10-31T04:13:41;11.19;85.19
69359;HTU21D;56520;49.066;8.660;2023-10-31T04:16:07;11.18;85.17
69359;HTU21D;56520;49.066;8.660;2023-10-31T04:18:32;11.10;85.22
69359;HTU21D;56520;49.066;8.660;2023-10-31T04:20:58;11.04;85.96
69359;HTU21D;56520;49.066;8.660;2023-10-31T04:23:24;10.98;85.88
69359;HTU21D;56520;49.066;8.660;2023-10-31T04:25:49;10.95;86.00
69359;HTU21D;56520;49.066;8.660;2023-10-31T04:28:16;10.95;85.53
69359;HTU21D;56520;49.066;8.660;2023-10-31T04:30:41;10.99;84.97
69359;HTU21D;56520;49.066;8.660;2023-10-31T04:33:06;10.98;85.05
69359;HTU21D;56520;49.066;8.660;2023-10-31T04:35:32;11.07;84.48
69359;HTU21D;56520;49.066;8.660;2023-10-31T04:37:57;11.08;84.54
69359;HTU21D;56520;49.066;8.660;2023-10-31T04:40:23;10.99;85.32
69359;HTU21D;56520;49.066;8.660;2023-10-31T04:42:48;10.98;85.21
69359;HTU21D;56520;49.066;8.660;2023-10-31T04:45:14;11.01;85.15
69359;HTU21D;56520;49.066;8.660;2023-10-31T04:47:40;11.01;85.07
69359;HTU21D;56520;49.066;8.660;2023-10-31T04:50:06;11.01;85.12
69359;HTU21D;56520;49.066;8.660;2023-10-31T04:52:32;10.96;85.68
69359;HTU21D;56520;49.066;8.660;2023-10-31T04:54:57;10.93;86.06
69359;HTU21D;56520;49.066;8.660;2023-10-31T04:57:23;10.92;86.43
69359;HTU21D;56520;49.066;8.660;2023-10-31T04:59:48;10.87;86.63
69359;HTU21D;56520;49.066;8.660;2023-10-31T05:02:13;10.87;86.60
69359;HTU21D;56520;49.066;8.660;2023-10-31T05:04:39;10.92;86.12
69359;HTU21D;56520;49.066;8.660;2023-10-31T05:07:05;10.89;86.42
69359;HTU21D;56520;49.066;8.660;2023-10-31T05:09:31;10.85;86.52
69359;HTU21D;56520;49.066;8.660;2023-10-31T05:11:56;10.84;86.52
69359;HTU21D;56520;49.066;8.660;2023-10-31T05:14:22;10.85;85.18
69359;HTU21D;56520;49.066;8.660;2023-10-31T05:16:47;10.94;84.54
69359;HTU21D;56520;49.066;8.660;2023-10-31T05:19:12;10.94;84.94
69359;HTU21D;56520;49.066;8.660;2023-10-31T05:21:38;10.93;84.55
69359;HTU21D;56520;49.066;8.660;2023-10-31T05:24:04;11.00;83.97
69359;HTU21D;56520;49.066;8.660;2023-10-31T05:26:29;11.00;84.04
69359;HTU21D;56520;49.066;8.660;2023-10-31T05:28:56;10.97;84.50
69359;HTU21D;56520;49.066;8.660;2023-10-31T05:31:22;11.02;83.95
69359;HTU21D;56520;49.066;8.660;2023-10-31T05:33:48;11.07;83.36
69359;HTU21D;56520;49.066;8.660;2023-10-31T05:36:21;11.19;83.32
69359;HTU21D;56520;49.066;8.660;2023-10-31T05:38:46;11.14;84.58
69359;HTU21D;56520;49.066;8.660;2023-10-31T05:41:12;10.95;85.94
69359;HTU21D;56520;49.066;8.660;2023-10-31T05:43:38;10.80;86.16
69359;HTU21D;56520;49.066;8.660;2023-10-31T05:46:03;10.69;86.78
69359;HTU21D;56520;49.066;8.660;2023-10-31T05:48:30;10.63;86.69
69359;HTU21D;56520;49.066;8.660;2023-10-31T05:50:56;10.58;86.77
69359;HTU21D;56520;49.066;8.660;2023-10-31T05:53:21;10.54;87.09
69359;HTU21D;56520;49.066;8.660;2023-10-31T05:55:47;10.55;86.79
69359;HTU21D;56520;49.066;8.660;2023-10-31T05:58:12;10.55;86.82
69359;HTU21D;56520;49.066;8.660;2023-10-31T06:00:37;10.55;87.09
69359;HTU21D;56520;49.066;8.660;2023-10-31T06:03:03;10.55;87.05
69359;HTU21D;56520;49.066;8.660;2023-10-31T06:05:28;10.56;86.74
69359;HTU21D;56520;49.066;8.660;2023-10-31T06:07:54;10.62;86.16
69359;HTU21D;56520;49.066;8.660;2023-10-31T06:10:20;10.63;85.88
69359;HTU21D;56520;49.066;8.660;2023-10-31T06:12:46;10.65;86.28
69359;HTU21D;56520;49.066;8.660;2023-10-31T06:15:12;10.68;85.58
69359;HTU21D;56520;49.066;8.660;2023-10-31T06:17:37;10.72;85.58
69359;HTU21D;56520;49.066;8.660;2023-10-31T06:20:03;10.82;85.32
69359;HTU21D;56520;49.066;8.660;2023-10-31T06:22:28;10.84;85.19
69359;HTU21D;56520;49.066;8.660;2023-10-31T06:24:54;10.79;85.75
69359;HTU21D;56520;49.066;8.660;2023-10-31T06:27:19;10.84;85.34
69359;HTU21D;56520;49.066;8.660;2023-10-31T06:29:44;10.79;85.88
69359;HTU21D;56520;49.066;8.660;2023-10-31T06:32:10;10.78;85.91
69359;HTU21D;56520;49.066;8.660;2023-10-31T06:34:35;10.72;86.22
69359;HTU21D;56520;49.066;8.660;2023-10-31T06:37:00;10.72;86.29
69359;HTU21D;56520;49.066;8.660;2023-10-31T06:39:26;10.81;85.99
69359;HTU21D;56520;49.066;8.660;2023-10-31T06:41:54;10.80;86.09
69359;HTU21D;56520;49.066;8.660;2023-10-31T06:44:20;10.81;86.64
69359;HTU21D;56520;49.066;8.660;2023-10-31T06:46:45;10.79;87.09
69359;HTU21D;56520;49.066;8.660;2023-10-31T06:49:11;10.79;86.67
69359;HTU21D;56520;49.066;8.660;2023-10-31T06:51:36;10.81;86.51
69359;HTU21D;56520;49.066;8.660;2023-10-31T06:54:01;10.86;86.48
69359;HTU21D;56520;49.066;8.660;2023-10-31T06:56:27;10.81;86.90
69359;HTU21D;56520;49.066;8.660;2023-10-31T06:58:54;10.82;87.02
69359;HTU21D;56520;49.066;8.660;2023-10-31T07:01:19;10.83;86.81
69359;HTU21D;56520;49.066;8.660;2023-10-31T07:03:45;10.85;86.92
69359;HTU21D;56520;49.066;8.660;2023-10-31T07:06:10;10.83;87.14
69359;HTU21D;56520;49.066;8.660;2023-10-31T07:08:35;10.84;87.19
69359;HTU21D;56520;49.066;8.660;2023-10-31T07:11:01;10.96;86.25
69359;HTU21D;56520;49.066;8.660;2023-10-31T07:13:26;10.93;86.72
69359;HTU21D;56520;49.066;8.660;2023-10-31T07:15:52;10.89;86.94
69359;HTU21D;56520;49.066;8.660;2023-10-31T07:18:17;10.88;87.37
69359;HTU21D;56520;49.066;8.660;2023-10-31T07:20:42;10.92;87.23
69359;HTU21D;56520;49.066;8.660;2023-10-31T07:23:08;10.92;87.09
69359;HTU21D;56520;49.066;8.660;2023-10-31T07:25:33;10.87;87.67
69359;HTU21D;56520;49.066;8.660;2023-10-31T07:27:58;10.82;88.08
69359;HTU21D;56520;49.066;8.660;2023-10-31T07:30:24;10.82;88.21
69359;HTU21D;56520;49.066;8.660;2023-10-31T07:32:49;10.82;88.09
69359;HTU21D;56520;49.066;8.660;2023-10-31T07:35:15;10.84;88.15
69359;HTU21D;56520;49.066;8.660;2023-10-31T07:37:40;10.89;87.69
69359;HTU21D;56520;49.066;8.660;2023-10-31T07:40:06;10.93;87.64
69359;HTU21D;56520;49.066;8.660;2023-10-31T07:42:31;10.93;87.54
69359;HTU21D;56520;49.066;8.660;2023-10-31T07:44:59;11.00;86.99
69359;HTU21D;56520;49.066;8.660;2023-10-31T07:47:24;11.03;86.80
69359;HTU21D;56520;49.066;8.660;2023-10-31T07:49:50;11.02;87.11
69359;HTU21D;56520;49.066;8.660;2023-10-31T07:52:15;11.05;87.36
69359;HTU21D;56520;49.066;8.660;2023-10-31T07:54:40;11.05;87.32
69359;HTU21D;56520;49.066;8.660;2023-10-31T07:57:06;11.08;87.47
69359;HTU21D;56520;49.066;8.660;2023-10-31T07:59:35;11.12;87.15
69359;HTU21D;56520;49.066;8.660;2023-10-31T08:02:01;11.18;86.66
69359;HTU21D;56520;49.066;8.660;2023-10-31T08:04:26;11.26;85.79
69359;HTU21D;56520;49.066;8.660;2023-10-31T08:06:53;11.33;85.19
69359;HTU21D;56520;49.066;8.660;2023-10-31T08:09:19;11.36;84.84
69359;HTU21D;56520;49.066;8.660;2023-10-31T08:11:44;11.38;84.77
69359;HTU21D;56520;49.066;8.660;2023-10-31T08:14:09;11.41;84.48
69359;HTU21D;56520;49.066;8.660;2023-10-31T08:16:35;11.45;84.58
69359;HTU21D;56520;49.066;8.660;2023-10-31T08:19:01;11.57;84.73
69359;HTU21D;56520;49.066;8.660;2023-10-31T08:21:27;11.82;83.57
69359;HTU21D;56520;49.066;8.660;2023-10-31T08:23:59;12.04;83.12
69359;HTU21D;56520;49.066;8.660;2023-10-31T08:26:24;12.51;80.17
69359;HTU21D;56520;49.066;8.660;2023-10-31T08:28:49;12.64;79.26
69359;HTU21D;56520;49.066;8.660;2023-10-31T08:31:16;12.75;80.02
69359;HTU21D;56520;49.066;8.660;2023-10-31T08:33:42;12.95;77.01
69359;HTU21D;56520;49.066;8.660;2023-10-31T08:36:07;13.03;77.83
69359;HTU21D;56520;49.066;8.660;2023-10-31T08:38:34;13.14;77.94
69359;HTU21D;56520;49.066;8.660;2023-10-31T08:40:59;13.38;76.74
69359;HTU21D;56520;49.066;8.660;2023-10-31T08:43:24;13.61;75.71
69359;HTU21D;56520;49.066;8.660;2023-10-31T08:45:50;14.04;72.43
69359;HTU21D;56520;49.066;8.660;2023-10-31T08:48:15;13.99;72.89
69359;HTU21D;56520;49.066;8.660;2023-10-31T08:50:41;13.99;73.50
69359;HTU21D;56520;49.066;8.660;2023-10-31T08:53:06;14.08;73.90
69359;HTU21D;56520;49.066;8.660;2023-10-31T08:55:31;14.42;70.80
69359;HTU21D;56520;49.066;8.660;2023-10-31T08:57:57;14.57;71.67
69359;HTU21D;56520;49.066;8.660;2023-10-31T09:00:22;14.78;71.65
69359;HTU21D;56520;49.066;8.660;2023-10-31T09:02:48;15.13;68.50
69359;HTU21D;56520;49.066;8.660;2023-10-31T09:05:13;15.03;68.55
69359;HTU21D;56520;49.066;8.660;2023-10-31T09:07:39;15.01;69.34
69359;HTU21D;56520;49.066;8.660;2023-10-31T09:10:06;15.13;69.10
69359;HTU21D;56520;49.066;8.660;2023-10-31T09:12:31;15.28;68.81
69359;HTU21D;56520;49.066;8.660;2023-10-31T09:14:57;15.45;68.44
69359;HTU21D;56520;49.066;8.660;2023-10-31T09:17:22;15.45;68.46
69359;HTU21D;56520;49.066;8.660;2023-10-31T09:19:48;15.32;68.04
69359;HTU21D;56520;49.066;8.660;2023-10-31T09:22:13;15.42;67.14
69359;HTU21D;56520;49.066;8.660;2023-10-31T09:24:38;15.24;69.27
69359;HTU21D;56520;49.066;8.660;2023-10-31T09:27:05;15.06;70.19
69359;HTU21D;56520;49.066;8.660;2023-10-31T09:29:30;15.03;68.89
69359;HTU21D;56520;49.066;8.660;2023-10-31T09:31:56;15.22;66.99
69359;HTU21D;56520;49.066;8.660;2023-10-31T09:34:22;15.13;68.15
69359;HTU21D;56520;49.066;8.660;2023-10-31T09:36:47;14.95;70.21
69359;HTU21D;56520;49.066;8.660;2023-10-31T09:39:12;14.97;69.63
69359;HTU21D;56520;49.066;8.660;2023-10-31T09:41:38;14.96;70.35
69359;HTU21D;56520;49.066;8.660;2023-10-31T09:44:03;14.85;69.59
69359;HTU21D;56520;49.066;8.660;2023-10-31T09:46:29;14.58;70.45
69359;HTU21D;56520;49.066;8.660;2023-10-31T09:48:55;14.39;71.67
69359;HTU21D;56520;49.066;8.660;2023-10-31T09:51:21;14.20;71.43
69359;HTU21D;56520;49.066;8.660;2023-10-31T09:53:47;14.00;72.85
69359;HTU21D;56520;49.066;8.660;2023-10-31T09:56:14;13.96;72.96
69359;HTU21D;56520;49.066;8.660;2023-10-31T09:58:39;13.93;72.98
69359;HTU21D;56520;49.066;8.660;2023-10-31T10:01:06;13.85;72.77
69359;HTU21D;56520;49.066;8.660;2023-10-31T10:03:32;13.69;74.31
69359;HTU21D;56520;49.066;8.660;2023-10-31T10:05:58;13.71;74.67
69359;HTU21D;56520;49.066;8.660;2023-10-31T10:08:23;13.68;75.08
69359;HTU21D;56520;49.066;8.660;2023-10-31T10:10:52;13.90;75.66
69359;HTU21D;56520;49.066;8.660;2023-10-31T10:13:18;14.17;74.43
69359;HTU21D;56520;49.066;8.660;2023-10-31T10:15:45;14.38;73.06
69359;HTU21D;56520;49.066;8.660;2023-10-31T10:18:33;14.50;73.54
69359;HTU21D;56520;49.066;8.660;2023-10-31T10:21:01;14.68;70.91
69359;HTU21D;56520;49.066;8.660;2023-10-31T10:23:28;14.62;71.48
69359;HTU21D;56520;49.066;8.660;2023-10-31T10:25:56;14.53;72.49
69359;HTU21D;56520;49.066;8.660;2023-10-31T10:28:21;14.64;73.45
69359;HTU21D;56520;49.066;8.660;2023-10-31T10:30:48;14.84;71.58
69359;HTU21D;56520;49.066;8.660;2023-10-31T10:33:17;14.87;70.45
69359;HTU21D;56520;49.066;8.660;2023-10-31T10:35:43;14.70;71.29
69359;HTU21D;56520;49.066;8.660;2023-10-31T10:38:13;14.49;71.22
69359;HTU21D;56520;49.066;8.660;2023-10-31T10:40:44;14.12;72.96
69359;HTU21D;56520;49.066;8.660;2023-10-31T10:43:25;13.91;74.22
69359;HTU21D;56520;49.066;8.660;2023-10-31T10:45:54;13.77;74.73
69359;HTU21D;56520;49.066;8.660;2023-10-31T10:48:23;13.69;75.44
69359;HTU21D;56520;49.066;8.660;2023-10-31T10:53:41;13.74;74.87
69359;HTU21D;56520;49.066;8.660;2023-10-31T10:56:15;13.65;74.90
69359;HTU21D;56520;49.066;8.660;2023-10-31T10:58:51;13.54;75.53
69359;HTU21D;56520;49.066;8.660;2023-10-31T11:01:20;13.52;76.00
69359;HTU21D;56520;49.066;8.660;2023-10-31T11:03:46;13.58;76.38
69359;HTU21D;56520;49.066;8.660;2023-10-31T11:06:12;13.58;76.28
69359;HTU21D;56520;49.066;8.660;2023-10-31T11:08:39;13.67;75.27
69359;HTU21D;56520;49.066;8.660;2023-10-31T11:11:05;13.77;75.53
69359;HTU21D;56520;49.066;8.660;2023-10-31T11:13:32;13.71;76.00
69359;HTU21D;56520;49.066;8.660;2023-10-31T11:16:01;13.71;75.26
69359;HTU21D;56520;49.066;8.660;2023-10-31T11:18:27;13.66;74.66
69359;HTU21D;56520;49.066;8.660;2023-10-31T11:20:53;13.60;75.38
69359;HTU21D;56520;49.066;8.660;2023-10-31T11:23:18;13.51;76.00
69359;HTU21D;56520;49.066;8.660;2023-10-31T11:25:44;13.50;76.78
69359;HTU21D;56520;49.066;8.660;2023-10-31T11:28:14;13.55;76.64
69359;HTU21D;56520;49.066;8.660;2023-10-31T11:30:41;13.85;76.09
69359;HTU21D;56520;49.066;8.660;2023-10-31T11:33:11;14.19;76.84
69359;HTU21D;56520;49.066;8.660;2023-10-31T11:35:39;14.56;75.09
69359;HTU21D;56520;49.066;8.660;2023-10-31T11:38:10;14.87;73.07
69359;HTU21D;56520;49.066;8.660;2023-10-31T11:40:57;14.98;73.47
69359;HTU21D;56520;49.066;8.660;2023-10-31T11:43:22;14.92;73.03
69359;HTU21D;56520;49.066;8.660;2023-10-31T11:45:48;14.79;72.86
69359;HTU21D;56520;49.066;8.660;2023-10-31T11:48:14;14.59;73.22
69359;HTU21D;56520;49.066;8.660;2023-10-31T11:50:40;14.34;74.60
69359;HTU21D;56520;49.066;8.660;2023-10-31T11:53:11;14.20;76.06
69359;HTU21D;56520;49.066;8.660;2023-10-31T11:55:43;14.09;75.87
69359;HTU21D;56520;49.066;8.660;2023-10-31T12:00:41;13.78;77.15
69359;HTU21D;56520;49.066;8.660;2023-10-31T12:03:06;13.76;77.80
69359;HTU21D;56520;49.066;8.660;2023-10-31T12:05:32;13.79;77.44
69359;HTU21D;56520;49.066;8.660;2023-10-31T12:07:57;13.88;77.66
69359;HTU21D;56520;49.066;8.660;2023-10-31T12:10:27;14.05;76.15
69359;HTU21D;56520;49.066;8.660;2023-10-31T12:12:55;14.26;75.63
69359;HTU21D;56520;49.066;8.660;2023-10-31T12:15:21;14.35;73.38
69359;HTU21D;56520;49.066;8.660;2023-10-31T12:17:48;14.26;74.15
69359;HTU21D;56520;49.066;8.660;2023-10-31T12:20:13;14.25;74.36
69359;HTU21D;56520;49.066;8.660;2023-10-31T12:22:39;14.32;75.02
69359;HTU21D;56520;49.066;8.660;2023-10-31T12:25:06;14.36;75.11
69359;HTU21D;56520;49.066;8.660;2023-10-31T12:27:46;14.35;75.32
69359;HTU21D;56520;49.066;8.660;2023-10-31T12:30:13;14.29;75.59
69359;HTU21D;56520;49.066;8.660;2023-10-31T12:32:42;14.23;75.79
69359;HTU21D;56520;49.066;8.660;2023-10-31T12:35:19;14.14;75.99
69359;HTU21D;56520;49.066;8.660;2023-10-31T12:37:46;14.14;75.95
69359;HTU21D;56520;49.066;8.660;2023-10-31T12:40:22;14.22;73.49
69359;HTU21D;56520;49.066;8.660;2023-10-31T12:42:49;14.10;74.81
69359;HTU21D;56520;49.066;8.660;2023-10-31T12:45:16;13.98;75.44
69359;HTU21D;56520;49.066;8.660;2023-10-31T12:47:43;13.90;76.19
69359;HTU21D;56520;49.066;8.660;2023-10-31T12:50:13;13.83;77.76
69359;HTU21D;56520;49.066;8.660;2023-10-31T12:52:52;13.79;78.11
69359;HTU21D;56520;49.066;8.660;2023-10-31T12:55:23;13.70;78.12
69359;HTU21D;56520;49.066;8.660;2023-10-31T12:57:49;13.64;78.59
69359;HTU21D;56520;49.066;8.660;2023-10-31T13:00:17;13.67;78.25
69359;HTU21D;56520;49.066;8.660;2023-10-31T13:02:58;13.53;79.32
69359;HTU21D;56520;49.066;8.660;2023-10-31T13:05:26;13.47;79.33
69359;HTU21D;56520;49.066;8.660;2023-10-31T13:07:53;13.41;79.75
69359;HTU21D;56520;49.066;8.660;2023-10-31T13:10:19;13.38;80.94
69359;HTU21D;56520;49.066;8.660;2023-10-31T13:12:49;13.39;80.98
69359;HTU21D;56520;49.066;8.660;2023-10-31T13:15:15;13.47;81.07
69359;HTU21D;56520;49.066;8.660;2023-10-31T13:17:41;13.49;80.90
69359;HTU21D;56520;49.066;8.660;2023-10-31T13:20:09;13.47;80.58
69359;HTU21D;56520;49.066;8.660;2023-10-31T13:22:35;13.41;80.72
69359;HTU21D;56520;49.066;8.660;2023-10-31T13:25:05;13.37;81.61
69359;HTU21D;56520;49.066;8.660;2023-10-31T13:27:35;13.38;82.18
69359;HTU21D;56520;49.066;8.660;2023-10-31T13:30:02;13.30;83.57
69359;HTU21D;56520;49.066;8.660;2023-10-31T13:32:28;13.19;83.63
69359;HTU21D;56520;49.066;8.660;2023-10-31T13:34:53;13.02;84.28
69359;HTU21D;56520;49.066;8.660;2023-10-31T13:37:18;12.81;85.13
69359;HTU21D;56520;49.066;8.660;2023-10-31T13:39:44;12.71;86.58
69359;HTU21D;56520;49.066;8.660;2023-10-31T13:42:09;12.60;86.86
69359;HTU21D;56520;49.066;8.660;2023-10-31T13:44:36;12.56;87.88
69359;HTU21D;56520;49.066;8.660;2023-10-31T13:47:02;12.51;88.43
69359;HTU21D;56520;49.066;8.660;2023-10-31T13:49:27;12.48;88.96
69359;HTU21D;56520;49.066;8.660;2023-10-31T13:51:53;12.45;89.25
69359;HTU21D;56520;49.066;8.660;2023-10-31T13:54:18;12.44;89.15
69359;HTU21D;56520;49.066;8.660;2023-10-31T13:56:45;12.48;89.24
69359;HTU21D;56520;49.066;8.660;2023-10-31T13:59:11;12.70;89.69
69359;HTU21D;56520;49.066;8.660;2023-10-31T14:01:36;12.90;89.60
69359;HTU21D;56520;49.066;8.660;2023-10-31T14:04:02;13.03;89.71
69359;HTU21D;56520;49.066;8.660;2023-10-31T14:06:27;13.14;88.06
69359;HTU21D;56520;49.066;8.660;2023-10-31T14:08:56;13.23;87.95
69359;HTU21D;56520;49.066;8.660;2023-10-31T14:11:21;13.22;87.50
69359;HTU21D;56520;49.066;8.660;2023-10-31T14:13:47;13.19;86.83
69359;HTU21D;56520;49.066;8.660;2023-10-31T14:16:13;13.12;87.71
69359;HTU21D;56520;49.066;8.660;2023-10-31T14:18:38;13.11;86.76
69359;HTU21D;56520;49.066;8.660;2023-10-31T14:21:04;13.09;86.63
69359;HTU21D;56520;49.066;8.660;2023-10-31T14:23:30;13.08;86.61
69359;HTU21D;56520;49.066;8.660;2023-10-31T14:25:56;13.06;86.08
69359;HTU21D;56520;49.066;8.660;2023-10-31T14:28:21;13.07;86.55
69359;HTU21D;56520;49.066;8.660;2023-10-31T14:30:47;13.05;86.19
69359;HTU21D;56520;49.066;8.660;2023-10-31T14:33:12;13.05;86.02
69359;HTU21D;56520;49.066;8.660;2023-10-31T14:35:39;13.01;86.03
69359;HTU21D;56520;49.066;8.660;2023-10-31T14:38:04;12.95;86.24
69359;HTU21D;56520;49.066;8.660;2023-10-31T14:40:30;12.93;86.45
69359;HTU21D;56520;49.066;8.660;2023-10-31T14:42:55;12.93;86.67
69359;HTU21D;56520;49.066;8.660;2023-10-31T14:45:20;12.92;86.94
69359;HTU21D;56520;49.066;8.660;2023-10-31T14:47:46;12.93;86.78
69359;HTU21D;56520;49.066;8.660;2023-10-31T14:50:11;12.92;86.78
69359;HTU21D;56520;49.066;8.660;2023-10-31T14:52:37;12.92;86.84
69359;HTU21D;56520;49.066;8.660;2023-10-31T14:55:03;12.93;86.69
69359;HTU21D;56520;49.066;8.660;2023-10-31T14:57:28;12.94;86.77
69359;HTU21D;56520;49.066;8.660;2023-10-31T14:59:53;12.92;86.66
69359;HTU21D;56520;49.066;8.660;2023-10-31T15:02:22;12.89;86.44
69359;HTU21D;56520;49.066;8.660;2023-10-31T15:04:48;12.86;86.75
69359;HTU21D;56520;49.066;8.660;2023-10-31T15:07:13;12.79;86.48
69359;HTU21D;56520;49.066;8.660;2023-10-31T15:09:39;12.74;86.65
69359;HTU21D;56520;49.066;8.660;2023-10-31T15:12:04;12.69;86.88
69359;HTU21D;56520;49.066;8.660;2023-10-31T15:14:30;12.62;87.22